createdAt,value
2019-01-18T00:01:15.878Z,97101.48
2019-01-18T00:03:45.303Z,97104.89
2019-01-18T00:06:14.621Z,97112.27
2019-01-18T00:08:43.967Z,97112.41
2019-01-18T00:11:13.555Z,97112.41
2019-01-18T00:13:42.991Z,97118.42
2019-01-18T00:16:12.425Z,97120.02
2019-01-18T00:18:41.767Z,97119.52
2019-01-18T00:21:11.193Z,97128.91
2019-01-18T00:23:40.573Z,97128.91
2019-01-18T00:26:09.861Z,97138.08
2019-01-18T00:28:39.329Z,97146.34
2019-01-18T00:31:08.774Z,97145.42
2019-01-18T00:33:38.476Z,97145.42
2019-01-18T00:36:07.858Z,97142.24
2019-01-18T00:38:54.935Z,97149.67
2019-01-18T00:41:43.133Z,97155.95
2019-01-18T00:44:12.574Z,97163.33
2019-01-18T00:46:41.956Z,97159.84
2019-01-18T00:49:11.439Z,97168.34
2019-01-18T00:51:40.728Z,97161.61
2019-01-18T00:54:10.199Z,97167.80
2019-01-18T00:56:39.602Z,97167.80
2019-01-18T01:02:00.881Z,97181.30
2019-01-18T01:04:30.229Z,97191.79
2019-01-18T01:06:59.997Z,97191.79
2019-01-18T01:09:29.174Z,97203.18
2019-01-18T01:12:01.804Z,97222.08
2019-01-18T01:14:31.078Z,97210.70
2019-01-18T01:17:00.607Z,97215.19
2019-01-18T01:19:29.832Z,97221.63
2019-01-18T01:21:59.139Z,97223.80
2019-01-18T01:24:28.411Z,97234.88
2019-01-18T01:27:15.543Z,97233.73
2019-01-18T01:29:44.823Z,97233.73
2019-01-18T01:32:14.650Z,97236.83
2019-01-18T01:34:43.851Z,97236.83
2019-01-18T01:37:16.212Z,97240.38
2019-01-18T01:39:46.795Z,97254.81
2019-01-18T01:42:18.111Z,97259.05
2019-01-18T01:44:47.334Z,97261.69
2019-01-18T01:47:16.651Z,97261.22
2019-01-18T01:49:45.895Z,97269.06
2019-01-18T01:52:16.750Z,97264.78
2019-01-18T01:54:47.757Z,97280.13
2019-01-18T01:57:18.199Z,97280.13
2019-01-18T01:59:49.982Z,97292.70
2019-01-18T02:02:18.366Z,97292.70
2019-01-18T02:04:51.809Z,97296.12
2019-01-18T02:07:21.079Z,97296.12
2019-01-18T02:09:50.303Z,97297.33
2019-01-18T02:12:19.467Z,97300.98
2019-01-18T02:14:52.744Z,97308.55
2019-01-18T02:17:23.167Z,97309.89
2019-01-18T02:19:52.401Z,97311.16
2019-01-18T02:22:23.737Z,97319.38
2019-01-18T02:24:52.974Z,97319.38
2019-01-18T02:27:22.240Z,97327.27
2019-01-18T02:29:56.544Z,97339.23
2019-01-18T02:32:22.992Z,97335.61
2019-01-18T02:34:53.893Z,97331.43
2019-01-18T02:37:23.213Z,97344.05
2019-01-18T02:39:52.724Z,97348.80
2019-01-18T02:42:22.693Z,97348.80
2019-01-18T02:44:51.924Z,97350.70
2019-01-18T02:47:21.321Z,97354.11
2019-01-18T02:49:50.508Z,97354.11
2019-01-18T02:52:20.236Z,97366.65
2019-01-18T02:54:51.022Z,97366.49
2019-01-18T02:57:20.382Z,97363.99
2019-01-18T02:59:49.867Z,97366.69
2019-01-18T03:02:22.985Z,97375.62
2019-01-18T03:04:53.775Z,97375.62
2019-01-18T03:07:23.311Z,97381.84
2019-01-18T03:09:54.365Z,97386.32
2019-01-18T03:12:23.775Z,97386.32
2019-01-18T03:14:54.309Z,97391.45
2019-01-18T03:17:23.617Z,97405.14
2019-01-18T03:19:53.166Z,97406.92
2019-01-18T03:22:22.541Z,97405.51
2019-01-18T03:24:53.574Z,97403.73
2019-01-18T03:27:24.073Z,97403.73
2019-01-18T03:29:53.289Z,97409.92
2019-01-18T03:32:22.587Z,97419.33
2019-01-18T03:34:55.186Z,97418.77
2019-01-18T03:37:24.476Z,97418.77
2019-01-18T03:39:53.684Z,97424.08
2019-01-18T03:42:22.976Z,97424.08
2019-01-18T03:44:52.171Z,97429.57
2019-01-18T03:47:21.680Z,97442.15
2019-01-18T03:49:50.908Z,97442.38
2019-01-18T03:52:20.330Z,97449.85
2019-01-18T03:54:49.981Z,97448.17
2019-01-18T03:57:37.447Z,97451.72
2019-01-18T04:00:09.565Z,97458.44
2019-01-18T04:02:38.899Z,97459.20
2019-01-18T04:05:09.248Z,97462.56
2019-01-18T04:07:40.048Z,97464.44
2019-01-18T04:10:11.637Z,97477.91
2019-01-18T04:12:41.067Z,97475.11
2019-01-18T04:15:12.461Z,97479.52
2019-01-18T04:17:41.768Z,97479.52
2019-01-18T04:20:12.059Z,97486.16
2019-01-18T04:22:41.649Z,97492.98
2019-01-18T04:25:13.384Z,97495.22
2019-01-18T04:27:43.956Z,97495.22
2019-01-18T04:30:15.522Z,97506.98
2019-01-18T04:32:52.131Z,97506.98
2019-01-18T04:35:21.700Z,97509.13
2019-01-18T04:37:50.886Z,97513.66
2019-01-18T04:40:23.184Z,97513.66
2019-01-18T04:42:53.587Z,97511.98
2019-01-18T04:45:23.491Z,97507.05
2019-01-18T04:47:52.797Z,97507.05
2019-01-18T04:50:23.632Z,97511.03
2019-01-18T04:52:53.072Z,97511.83
2019-01-18T04:55:23.331Z,97511.83
2019-01-18T04:57:52.574Z,97516.87
2019-01-18T05:00:24.126Z,97516.21
2019-01-18T05:02:53.663Z,97516.21
2019-01-18T05:05:22.850Z,97525.37
2019-01-18T05:07:52.070Z,97522.67
2019-01-18T05:10:22.527Z,97521.05
2019-01-18T05:12:51.721Z,97524.48
2019-01-18T05:15:23.367Z,97537.71
2019-01-18T05:17:52.578Z,97537.71
2019-01-18T05:20:21.796Z,97544.74
2019-01-18T05:22:51.280Z,97552.22
2019-01-18T05:25:20.813Z,97552.19
2019-01-18T05:27:50.019Z,97556.20
2019-01-18T05:30:22.266Z,97545.66
2019-01-18T05:32:51.487Z,97542.89
2019-01-18T05:35:20.705Z,97542.50
2019-01-18T05:37:51.612Z,97557.09
2019-01-18T05:40:20.989Z,97559.42
2019-01-18T05:42:50.296Z,97559.42
2019-01-18T05:45:20.816Z,97568.16
2019-01-18T05:47:52.969Z,97568.16
2019-01-18T05:50:25.566Z,97570.28
2019-01-18T05:52:57.515Z,97570.34
2019-01-18T05:55:26.930Z,97570.34
2019-01-18T05:57:56.212Z,97580.64
2019-01-18T06:00:37.387Z,97576.84
2019-01-18T06:03:08.128Z,97576.84
2019-01-18T06:05:40.492Z,97580.25
2019-01-18T06:08:09.787Z,97583.19
2019-01-18T06:10:38.992Z,97589.38
2019-01-18T06:13:11.134Z,97589.38
2019-01-18T06:18:29.090Z,97607.57
2019-01-18T06:20:58.405Z,97606.39
2019-01-18T06:23:27.589Z,97604.31
2019-01-18T06:26:14.812Z,97609.61
2019-01-18T06:28:54.383Z,97609.38
2019-01-18T06:31:28.900Z,97611.38
2019-01-18T06:33:58.095Z,97618.06
2019-01-18T06:36:27.415Z,97617.21
2019-01-18T06:38:56.669Z,97623.09
2019-01-18T06:41:36.590Z,97628.16
2019-01-18T06:44:05.911Z,97638.07
2019-01-18T06:46:35.118Z,97638.07
2019-01-18T06:49:05.462Z,97647.47
2019-01-18T06:51:34.694Z,97653.78
2019-01-18T06:54:05.129Z,97653.78
2019-01-18T06:56:34.897Z,97653.32
2019-01-18T06:59:04.172Z,97667.38
2019-01-18T07:01:33.495Z,97667.38
2019-01-18T07:04:02.963Z,97666.47
2019-01-18T07:06:32.435Z,97666.47
2019-01-18T07:09:01.769Z,97676.80
2019-01-18T07:11:34.789Z,97677.91
2019-01-18T07:14:04.091Z,97681.34
2019-01-18T07:16:33.409Z,97681.34
2019-01-18T07:19:03.209Z,97680.98
2019-01-18T07:21:33.695Z,97683.37
2019-01-18T07:24:03.058Z,97683.37
2019-01-18T07:26:35.850Z,97695.67
2019-01-18T07:29:05.293Z,97695.67
2019-01-18T07:31:36.615Z,97702.89
2019-01-18T07:34:05.538Z,97698.90
2019-01-18T07:36:39.560Z,97706.03
2019-01-18T07:39:09.197Z,97706.03
2019-01-18T07:41:38.596Z,97709.47
2019-01-18T07:44:07.825Z,97709.47
2019-01-18T07:46:38.022Z,97719.64
2019-01-18T07:51:54.215Z,97720.45
2019-01-18T07:54:23.433Z,97722.56
2019-01-18T07:57:10.836Z,97721.14
2019-01-18T07:59:42.870Z,97728.98
2019-01-18T08:02:12.516Z,97729.23
2019-01-18T08:04:41.702Z,97732.27
2019-01-18T08:07:11.615Z,97735.30
2019-01-18T08:09:40.914Z,97735.30
2019-01-18T08:12:10.126Z,97740.56
2019-01-18T08:14:39.537Z,97746.73
2019-01-18T08:17:08.832Z,97749.02
2019-01-18T08:19:38.442Z,97752.53
2019-01-18T08:22:07.728Z,97752.53
2019-01-18T08:24:37.036Z,97755.94
2019-01-18T08:27:07.518Z,97755.94
2019-01-18T08:29:37.154Z,97755.89
2019-01-18T08:32:06.582Z,97756.05
2019-01-18T08:34:35.781Z,97755.00
2019-01-18T08:37:05.480Z,97755.30
2019-01-18T08:39:34.759Z,97762.03
2019-01-18T08:42:03.949Z,97760.52
2019-01-18T08:44:33.179Z,97768.05
2019-01-18T08:47:02.755Z,97775.94
2019-01-18T08:49:32.010Z,97782.47
2019-01-18T08:52:01.210Z,97783.94
2019-01-18T08:54:30.564Z,97787.94
2019-01-18T08:56:59.805Z,97789.92
2019-01-18T09:02:16.827Z,97789.92
2019-01-18T09:04:46.022Z,97789.92
2019-01-18T09:07:15.214Z,97788.38
2019-01-18T09:09:44.411Z,97792.28
2019-01-18T09:12:13.597Z,97795.50
2019-01-18T09:14:44.213Z,97795.50
2019-01-18T09:17:13.440Z,97793.38
2019-01-18T09:19:44.861Z,97798.42
2019-01-18T09:22:14.632Z,97804.55
2019-01-18T09:24:44.158Z,97806.03
2019-01-18T09:27:15.116Z,97809.56
2019-01-18T09:29:44.322Z,97809.56
2019-01-18T09:32:49.206Z,97810.67
2019-01-18T09:36:12.829Z,97810.39
2019-01-18T09:38:42.295Z,97809.73
2019-01-18T09:41:11.524Z,97814.60
2019-01-18T09:43:40.861Z,97814.60
2019-01-18T09:46:10.254Z,97808.26
2019-01-18T09:48:39.439Z,97808.26
2019-01-18T09:51:10.759Z,97815.38
2019-01-18T09:53:39.710Z,97825.39
2019-01-18T09:56:08.910Z,97826.09
2019-01-18T09:58:38.096Z,97830.14
2019-01-18T10:01:07.364Z,97830.92
2019-01-18T10:03:37.767Z,97838.44
2019-01-18T10:06:07.076Z,97836.28
2019-01-18T10:08:38.881Z,97842.94
2019-01-18T10:11:08.397Z,97843.06
2019-01-18T10:13:37.657Z,97843.63
2019-01-18T10:16:07.018Z,97838.98
2019-01-18T10:18:36.189Z,97838.98
2019-01-18T10:21:05.419Z,97837.09
2019-01-18T10:23:34.611Z,97839.78
2019-01-18T10:26:03.972Z,97839.78
2019-01-18T10:28:33.153Z,97846.91
2019-01-18T10:31:02.397Z,97848.28
2019-01-18T10:33:31.583Z,97847.55
2019-01-18T10:36:00.755Z,97849.25
2019-01-18T10:40:57.032Z,97854.85
2019-01-18T10:43:27.947Z,97855.66
2019-01-18T10:45:57.336Z,97856.87
2019-01-18T10:48:26.623Z,97861.44
2019-01-18T10:50:56.243Z,97867.45
2019-01-18T10:53:25.514Z,97866.77
2019-01-18T10:55:54.724Z,97867.69
2019-01-18T10:58:23.943Z,97869.26
2019-01-18T11:00:53.129Z,97868.69
2019-01-18T11:03:23.525Z,97864.79
2019-01-18T11:05:52.881Z,97868.10
2019-01-18T11:08:22.071Z,97870.78
2019-01-18T11:10:51.242Z,97867.92
2019-01-18T11:13:20.567Z,97867.92
2019-01-18T11:15:49.752Z,97865.09
2019-01-18T11:18:18.927Z,97872.56
2019-01-18T11:20:56.031Z,97863.67
2019-01-18T11:23:42.710Z,97862.36
2019-01-18T11:26:12.330Z,97864.20
2019-01-18T11:28:41.578Z,97864.20
2019-01-18T11:31:10.773Z,97864.30
2019-01-18T11:33:40.399Z,97863.67
2019-01-18T11:36:09.637Z,97855.48
2019-01-18T11:38:38.836Z,97855.31
2019-01-18T11:41:08.522Z,97854.50
2019-01-18T11:43:37.722Z,97855.63
2019-01-18T11:46:06.885Z,97852.09
2019-01-18T11:48:36.732Z,97859.48
2019-01-18T11:51:08.996Z,97861.63
2019-01-18T11:53:38.193Z,97860.47
2019-01-18T11:56:07.409Z,97856.21
2019-01-18T11:58:36.927Z,97848.58
2019-01-18T12:01:06.128Z,97847.98
2019-01-18T12:03:35.266Z,97850.58
2019-01-18T12:06:04.518Z,97853.27
2019-01-18T12:08:33.902Z,97845.55
2019-01-18T12:11:03.409Z,97847.88
2019-01-18T12:13:32.597Z,97843.59
2019-01-18T12:16:01.810Z,97848.78
2019-01-18T12:18:30.985Z,97849.64
2019-01-18T12:21:00.185Z,97841.05
2019-01-18T12:23:30.938Z,97838.08
2019-01-18T12:26:00.689Z,97841.12
2019-01-18T12:28:30.188Z,97846.06
2019-01-18T12:30:59.440Z,97849.39
2019-01-18T12:33:28.716Z,97849.39
2019-01-18T12:35:58.480Z,97843.87
2019-01-18T12:38:27.772Z,97842.45
2019-01-18T12:40:56.937Z,97831.19
2019-01-18T12:43:27.568Z,97832.67
2019-01-18T12:45:56.814Z,97832.04
2019-01-18T12:48:26.002Z,97824.22
2019-01-18T12:50:55.208Z,97824.22
2019-01-18T12:53:24.745Z,97824.98
2019-01-18T12:55:53.928Z,97817.78
2019-01-18T12:58:23.145Z,97815.17
2019-01-18T13:00:52.453Z,97807.47
2019-01-18T13:03:21.615Z,97807.47
2019-01-18T13:05:54.888Z,97811.73
2019-01-18T13:08:24.037Z,97814.78
2019-01-18T13:10:53.465Z,97807.75
2019-01-18T13:16:04.563Z,97814.81
2019-01-18T13:18:34.667Z,97806.23
2019-01-18T13:21:04.053Z,97812.35
2019-01-18T13:23:34.291Z,97809.89
2019-01-18T13:26:03.782Z,97808.83
2019-01-18T13:29:08.674Z,97808.83
2019-01-18T13:31:38.107Z,97803.03
2019-01-18T13:34:10.089Z,97801.51
2019-01-18T13:36:42.480Z,97806.36
2019-01-18T13:39:11.734Z,97805.79
2019-01-18T13:41:40.972Z,97804.83
2019-01-18T13:44:10.172Z,97804.83
2019-01-18T13:46:40.977Z,97805.83
2019-01-18T13:49:10.162Z,97805.70
2019-01-18T13:51:39.361Z,97807.09
2019-01-18T13:54:08.859Z,97809.31
2019-01-18T13:56:38.065Z,97811.28
2019-01-18T13:59:07.246Z,97814.78
2019-01-18T14:01:36.853Z,97810.47
2019-01-18T14:04:06.105Z,97815.18
2019-01-18T14:06:35.292Z,97813.69
2019-01-18T14:09:05.118Z,97820.34
2019-01-18T14:11:34.345Z,97825.28
2019-01-18T14:14:03.650Z,97825.28
2019-01-18T14:16:33.277Z,97825.67
2019-01-18T14:19:02.786Z,97835.83
2019-01-18T14:21:32.102Z,97833.24
2019-01-18T14:24:04.452Z,97833.24
2019-01-18T14:26:33.825Z,97832.84
2019-01-18T14:29:03.227Z,97840.59
2019-01-18T14:31:50.244Z,97834.17
2019-01-18T14:34:19.470Z,97844.60
2019-01-18T14:36:48.659Z,97843.87
2019-01-18T14:39:18.050Z,97846.23
2019-01-18T14:41:47.258Z,97840.05
2019-01-18T14:44:16.510Z,97843.39
2019-01-18T14:46:45.740Z,97840.49
2019-01-18T14:49:14.980Z,97837.78
2019-01-18T14:52:02.575Z,97835.39
2019-01-18T14:54:31.766Z,97839.04
2019-01-18T14:57:01.522Z,97841.58
2019-01-18T14:59:30.766Z,97841.55
2019-01-18T15:01:59.977Z,97838.53
2019-01-18T15:04:29.159Z,97841.05
2019-01-18T15:06:58.377Z,97839.73
2019-01-18T15:09:27.685Z,97838.50
2019-01-18T15:11:56.945Z,97833.52
2019-01-18T15:14:26.307Z,97842.66
2019-01-18T15:16:57.605Z,97830.91
2019-01-18T15:19:26.834Z,97833.88
2019-01-18T15:21:56.099Z,97833.88
2019-01-18T15:24:27.274Z,97834.09
2019-01-18T15:26:57.701Z,97830.81
2019-01-18T15:29:28.644Z,97828.53
2019-01-18T15:31:58.464Z,97826.76
2019-01-18T15:34:27.842Z,97826.76
2019-01-18T15:36:57.086Z,97826.05
2019-01-18T15:39:27.330Z,97826.05
2019-01-18T15:41:56.618Z,97827.60
2019-01-18T15:44:25.863Z,97824.83
2019-01-18T15:46:55.574Z,97824.83
2019-01-18T15:49:24.794Z,97832.00
2019-01-18T15:51:57.349Z,97838.56
2019-01-18T15:54:30.196Z,97842.63
2019-01-18T15:56:59.449Z,97837.84
2019-01-18T15:59:37.751Z,97828.91
2019-01-18T16:02:24.790Z,97829.06
2019-01-18T16:05:29.552Z,97830.55
2019-01-18T16:07:59.321Z,97836.03
2019-01-18T16:10:29.232Z,97833.69
2019-01-18T16:13:01.571Z,97834.69
2019-01-18T16:15:34.754Z,97834.28
2019-01-18T16:18:07.698Z,97834.28
2019-01-18T16:20:38.514Z,97835.17
2019-01-18T16:23:07.729Z,97833.95
2019-01-18T16:29:21.166Z,97836.86
2019-01-18T16:31:57.754Z,97830.28
2019-01-18T16:34:27.155Z,97830.28
2019-01-18T16:36:57.104Z,97827.02
2019-01-18T16:39:26.495Z,97825.08
2019-01-18T16:41:55.782Z,97827.16
2019-01-18T16:44:24.985Z,97829.08
2019-01-18T16:47:39.407Z,97829.08
2019-01-18T16:53:34.916Z,97828.07
2019-01-18T16:56:04.333Z,97833.28
2019-01-18T16:58:34.300Z,97830.92
2019-01-18T17:01:06.031Z,97830.92
2019-01-18T17:03:52.774Z,97837.63
2019-01-18T17:06:22.114Z,97836.50
2019-01-18T17:11:38.149Z,97828.03
2019-01-18T17:14:07.496Z,97824.35
2019-01-18T17:16:37.074Z,97819.64
2019-01-18T17:19:06.341Z,97824.23
2019-01-18T17:21:35.533Z,97831.75
2019-01-18T17:24:08.024Z,97831.75
2019-01-18T17:26:37.399Z,97821.63
2019-01-18T17:31:32.090Z,97817.56
2019-01-18T17:34:01.473Z,97820.09
2019-01-18T17:36:49.177Z,97820.09
2019-01-18T17:39:43.809Z,97820.59
2019-01-18T17:42:27.500Z,97829.74
2019-01-18T17:45:27.019Z,97822.00
2019-01-18T17:48:10.127Z,97823.73
2019-01-18T17:50:56.699Z,97824.80
2019-01-18T17:53:40.475Z,97824.25
2019-01-18T17:56:42.708Z,97824.25
2019-01-18T17:59:24.600Z,97824.57
2019-01-18T18:02:08.669Z,97831.28
2019-01-18T18:04:59.432Z,97825.73
2019-01-18T18:07:55.136Z,97824.37
2019-01-18T18:10:50.193Z,97816.55
2019-01-18T18:13:43.540Z,97817.71
2019-01-18T18:16:25.471Z,97825.52
2019-01-18T18:19:29.782Z,97825.52
2019-01-18T18:22:29.290Z,97826.54
2019-01-18T18:25:23.811Z,97817.71
2019-01-18T18:28:09.337Z,97819.50
2019-01-18T18:30:54.205Z,97815.87
2019-01-18T18:33:50.439Z,97813.34
2019-01-18T18:36:34.071Z,97808.40
2019-01-18T18:39:29.215Z,97806.19
2019-01-18T18:42:37.279Z,97812.36
2019-01-18T18:45:33.868Z,97812.36
2019-01-18T18:48:24.019Z,97804.38
2019-01-18T18:51:15.418Z,97802.61
2019-01-18T18:54:08.744Z,97810.67
2019-01-18T18:56:46.901Z,97805.59
2019-01-18T18:59:27.291Z,97800.17
2019-01-18T19:02:22.511Z,97797.22
2019-01-18T19:05:15.455Z,97797.45
2019-01-18T19:08:12.031Z,97794.41
2019-01-18T19:10:53.584Z,97796.27
2019-01-18T19:13:33.572Z,97796.27
2019-01-18T19:16:30.057Z,97791.88
2019-01-18T19:19:34.566Z,97793.55
2019-01-18T19:22:23.416Z,97791.30
2019-01-18T19:25:14.119Z,97785.94
2019-01-18T19:28:03.711Z,97785.94
2019-01-18T19:30:51.468Z,97786.90
2019-01-18T19:33:30.071Z,97786.62
2019-01-18T19:36:23.550Z,97785.47
2019-01-18T19:39:26.956Z,97790.47
2019-01-18T19:42:24.225Z,97789.55
2019-01-18T19:45:16.201Z,97787.48
2019-01-18T19:47:59.458Z,97789.73
2019-01-18T19:51:05.115Z,97789.73
2019-01-18T19:53:49.088Z,97793.20
2019-01-18T19:56:27.282Z,97787.39
2019-01-18T19:59:09.945Z,97793.50
2019-01-18T20:01:51.099Z,97790.42
2019-01-18T20:04:38.835Z,97790.42
2019-01-18T20:07:32.844Z,97787.56
2019-01-18T20:10:28.762Z,97787.56
2019-01-18T20:13:32.928Z,97787.81
2019-01-18T20:16:16.653Z,97789.99
2019-01-18T20:19:07.097Z,97792.27
2019-01-18T20:21:52.317Z,97796.11
2019-01-18T20:24:42.735Z,97796.11
2019-01-18T20:27:40.312Z,97785.84
2019-01-18T20:30:28.143Z,97779.81
2019-01-18T20:33:20.298Z,97779.81
2019-01-18T20:36:16.283Z,97785.12
2019-01-18T20:38:58.900Z,97792.05
2019-01-18T20:41:58.334Z,97789.54
2019-01-18T20:44:53.459Z,97784.66
2019-01-18T20:47:37.989Z,97785.95
2019-01-18T20:50:21.308Z,97781.17
2019-01-18T20:53:04.998Z,97787.92
2019-01-18T20:55:47.801Z,97790.91
2019-01-18T20:58:34.753Z,97790.45
2019-01-18T21:01:38.296Z,97794.19
2019-01-18T21:04:33.189Z,97790.05
2019-01-18T21:07:26.197Z,97781.00
2019-01-18T21:10:23.071Z,97781.00
2019-01-18T21:13:02.724Z,97786.38
2019-01-18T21:15:53.087Z,97786.38
2019-01-18T21:18:36.846Z,97779.50
2019-01-18T21:21:19.074Z,97788.81
2019-01-18T21:24:24.454Z,97784.84
2019-01-18T21:27:05.289Z,97781.25
2019-01-18T21:29:53.995Z,97781.25
2019-01-18T21:32:44.844Z,97784.16
2019-01-18T21:35:37.784Z,97784.16
2019-01-18T21:38:21.326Z,97784.89
2019-01-18T21:41:05.545Z,97777.31
2019-01-18T21:44:00.332Z,97780.31
2019-01-18T21:47:06.905Z,97777.33
2019-01-18T21:49:55.422Z,97777.33
2019-01-18T21:52:45.678Z,97779.61
2019-01-18T21:55:41.079Z,97774.30
2019-01-18T21:58:31.094Z,97772.48
2019-01-18T22:01:22.968Z,97772.44
2019-01-18T22:04:06.198Z,97772.44
2019-01-18T22:06:51.879Z,97768.89
2019-01-18T22:09:27.938Z,97769.35
2019-01-18T22:12:08.734Z,97774.63
2019-01-18T22:14:57.362Z,97774.63
2019-01-18T22:17:46.345Z,97775.25
2019-01-18T22:20:22.727Z,97776.90
2019-01-18T22:23:05.480Z,97764.62
2019-01-18T22:25:53.205Z,97764.62
2019-01-18T22:28:44.988Z,97775.23
2019-01-18T22:31:39.149Z,97774.02
2019-01-18T22:34:16.376Z,97773.34
2019-01-18T22:37:16.186Z,97773.34
2019-01-18T22:40:26.863Z,97781.32
2019-01-18T22:43:34.545Z,97784.41
2019-01-18T22:46:31.589Z,97784.13
2019-01-18T22:49:13.285Z,97782.32
2019-01-18T22:52:07.696Z,97774.12
2019-01-18T22:55:02.888Z,97774.12
2019-01-18T22:57:38.664Z,97776.92
2019-01-18T23:00:52.797Z,97780.70
2019-01-18T23:03:35.232Z,97787.84
2019-01-18T23:06:29.638Z,97782.55
2019-01-18T23:09:11.337Z,97781.78
2019-01-18T23:14:48.494Z,97778.06
2019-01-18T23:17:30.901Z,97780.06
2019-01-18T23:20:39.175Z,97778.55
2019-01-18T23:23:31.633Z,97778.55
2019-01-18T23:26:37.879Z,97770.53
2019-01-18T23:29:14.197Z,97772.04
2019-01-18T23:31:56.411Z,97771.27
2019-01-18T23:34:35.453Z,97771.27
2019-01-18T23:37:30.860Z,97768.81
2019-01-18T23:40:18.337Z,97770.09
2019-01-18T23:43:20.961Z,97769.14
2019-01-18T23:46:13.226Z,97767.69
2019-01-18T23:49:05.595Z,97766.47
2019-01-18T23:51:54.600Z,97766.47
2019-01-18T23:54:46.804Z,97763.56
2019-01-18T23:57:44.255Z,97764.11
